Meteo Giornale » Osservazioni meteo Stati Uniti (USA) » Helena
ore: 11:53 - Osservazioni Meteo Helena
Lat. 46° 36' N Lon. 111° 57' W Alt. 1180 metri s.l.m.
19 °C
Sereno
Temp. 24 Ore
9 °C
26 °C
Nord
0 Km/h
Dew point 4 °C
Umidità 37 %
Visibilità 10 Km
Il sole sorge alle ore 06:48
Il sole tramonta alle ore 20:07
| Data e Ora | Cielo e Fenomeni | T °C | DP °C | Um. % | Pres. hPa | Vis. km | Vento km/h | |
|---|---|---|---|---|---|---|---|---|
| Oggi h: 11:53 | Sereno | 19 | 4 | 37 | 1014 | 10 | N 0 | |
| Oggi h: 10:53 | Sereno | 17 | 4 | 41 | 1014 | 10 | N 0 | |
| Oggi h: 09:53 | Sereno | 14 | 4 | 50 | 1015 | 10 | N 5.5 | |
| Oggi h: 08:53 | Sereno | 12 | 4 | 57 | 1015 | 10 | N 0 | |
| Oggi h: 07:53 | Sereno | 9 | 4 | 70 | 1015 | 10 | N 0 | |
| Oggi h: 06:53 | Sereno | 12 | 4 | 57 | 1015 | 10 | N 5.5 | |
| Oggi h: 05:53 | Sereno | 11 | 3 | 57 | 1014 | 10 | N 0 | |
| Oggi h: 04:53 | Sereno | 11 | 4 | 61 | 1014 | 10 | E 9.3 | |
| Oggi h: 03:53 | Sereno | 11 | 4 | 61 | 1014 | 10 | N 0 | |
| Oggi h: 02:53 | Sereno | 12 | 3 | 54 | 1014 | 10 | O 7.4 | |
| Oggi h: 01:53 | Sereno | 13 | 4 | 54 | 1014 | 10 | N 0 | |
| Oggi h: 00:53 | Sereno | 14 | 3 | 47 | 1014 | 10 | N 0 | |
| Ieri h: 23:53 | Sereno | 14 | 3 | 47 | 1014 | 10 | O 13 | |
| Ieri h: 22:53 | Sereno | 17 | 3 | 39 | 1014 | 10 | N 0 | |
| Ieri h: 21:53 | Sereno | 17 | 3 | 39 | 1015 | 10 | O/SO 7.4 | |
| Ieri h: 20:53 | Sereno | 19 | 3 | 34 | 1014 | 10 | O/SO 14.8 | |
| Ieri h: 19:53 | Sereno | 23 | 1 | 23 | 1013 | 10 | N 0 | |
| Ieri h: 18:53 | Sereno | 25 | 1 | 20 | 1014 | 10 | E 16.7 | |
| Ieri h: 17:53 | Sereno | 26 | 1 | 19 | 1015 | 10 | E 20.3 | |
| Ieri h: 16:53 | Sereno | 26 | 1 | 19 | 1015 | 10 | E 18.5 | |
| Ieri h: 15:53 | Sereno | 25 | 2 | 22 | 1015 | 10 | E 22.2 | |
| Ieri h: 14:53 | Sereno | 24 | 0 | 20 | 1017 | 10 | E/SE 20.3 | |
| Ieri h: 13:53 | Sereno | 23 | 0 | 21 | 1017 | 10 | E 14.8 | |
| Ieri h: 12:53 | Sereno | 22 | 0 | 23 | 1018 | 10 | E 13 | |



